sensor_id;sensor_type;location;lat;lon;timestamp;temperature;humidity
25140;DHT22;39015;48.106;-1.682;2023-02-27T07:26:04;11.20;57.10
25140;DHT22;39015;48.106;-1.682;2023-02-27T07:28:31;11.20;57.20
25140;DHT22;39015;48.106;-1.682;2023-02-27T07:31:00;11.10;57.10
25140;DHT22;39015;48.106;-1.682;2023-02-27T07:33:27;11.10;57.20
25140;DHT22;39015;48.106;-1.682;2023-02-27T07:35:57;11.10;57.20
25140;DHT22;39015;48.106;-1.682;2023-02-27T07:38:24;11.10;57.30
25140;DHT22;39015;48.106;-1.682;2023-02-27T07:40:54;11.10;57.30
25140;DHT22;39015;48.106;-1.682;2023-02-27T07:43:24;11.20;57.30
25140;DHT22;39015;48.106;-1.682;2023-02-27T07:45:51;11.20;57.40
25140;DHT22;39015;48.106;-1.682;2023-02-27T07:48:19;11.10;57.30
25140;DHT22;39015;48.106;-1.682;2023-02-27T07:50:46;11.10;57.20
25140;DHT22;39015;48.106;-1.682;2023-02-27T07:53:14;11.10;57.40
25140;DHT22;39015;48.106;-1.682;2023-02-27T07:55:41;11.10;57.40
25140;DHT22;39015;48.106;-1.682;2023-02-27T07:58:08;11.10;57.40
25140;DHT22;39015;48.106;-1.682;2023-02-27T08:00:37;11.10;57.40
25140;DHT22;39015;48.106;-1.682;2023-02-27T08:03:04;11.10;57.40
25140;DHT22;39015;48.106;-1.682;2023-02-27T08:05:32;11.10;57.40
25140;DHT22;39015;48.106;-1.682;2023-02-27T08:07:59;11.10;58.10
25140;DHT22;39015;48.106;-1.682;2023-02-27T08:10:26;11.00;57.40
25140;DHT22;39015;48.106;-1.682;2023-02-27T08:12:54;11.00;57.50
25140;DHT22;39015;48.106;-1.682;2023-02-27T08:15:21;11.00;57.50
25140;DHT22;39015;48.106;-1.682;2023-02-27T08:17:50;11.00;57.40
25140;DHT22;39015;48.106;-1.682;2023-02-27T08:20:17;11.10;57.50
25140;DHT22;39015;48.106;-1.682;2023-02-27T08:22:47;11.10;57.50
25140;DHT22;39015;48.106;-1.682;2023-02-27T08:25:14;11.10;57.50
25140;DHT22;39015;48.106;-1.682;2023-02-27T08:27:42;11.00;57.50
25140;DHT22;39015;48.106;-1.682;2023-02-27T08:30:10;11.10;57.50
25140;DHT22;39015;48.106;-1.682;2023-02-27T08:32:39;11.10;57.60
25140;DHT22;39015;48.106;-1.682;2023-02-27T08:35:08;11.10;57.50
25140;DHT22;39015;48.106;-1.682;2023-02-27T08:37:35;11.10;57.50
25140;DHT22;39015;48.106;-1.682;2023-02-27T08:40:02;11.10;57.60
25140;DHT22;39015;48.106;-1.682;2023-02-27T08:42:31;11.10;57.40
25140;DHT22;39015;48.106;-1.682;2023-02-27T08:44:58;11.10;57.40
25140;DHT22;39015;48.106;-1.682;2023-02-27T08:47:26;11.20;57.40
25140;DHT22;39015;48.106;-1.682;2023-02-27T08:49:53;11.20;57.30
25140;DHT22;39015;48.106;-1.682;2023-02-27T08:52:22;11.20;57.40
25140;DHT22;39015;48.106;-1.682;2023-02-27T08:54:49;11.20;57.40
25140;DHT22;39015;48.106;-1.682;2023-02-27T08:57:16;11.20;57.40
25140;DHT22;39015;48.106;-1.682;2023-02-27T08:59:43;11.30;57.20
25140;DHT22;39015;48.106;-1.682;2023-02-27T09:02:10;11.30;57.30
25140;DHT22;39015;48.106;-1.682;2023-02-27T09:04:38;11.30;57.20
25140;DHT22;39015;48.106;-1.682;2023-02-27T09:07:06;11.30;57.10
25140;DHT22;39015;48.106;-1.682;2023-02-27T09:09:36;11.30;57.00
25140;DHT22;39015;48.106;-1.682;2023-02-27T09:12:04;11.40;57.00
25140;DHT22;39015;48.106;-1.682;2023-02-27T09:14:32;11.40;57.10
25140;DHT22;39015;48.106;-1.682;2023-02-27T09:17:02;11.40;57.10
25140;DHT22;39015;48.106;-1.682;2023-02-27T09:19:29;11.40;56.90
25140;DHT22;39015;48.106;-1.682;2023-02-27T09:21:57;11.40;56.90
25140;DHT22;39015;48.106;-1.682;2023-02-27T09:24:24;11.40;56.90
25140;DHT22;39015;48.106;-1.682;2023-02-27T09:26:53;11.40;56.90
25140;DHT22;39015;48.106;-1.682;2023-02-27T09:29:20;11.50;56.90
25140;DHT22;39015;48.106;-1.682;2023-02-27T09:31:49;11.50;56.90
25140;DHT22;39015;48.106;-1.682;2023-02-27T09:34:16;11.50;56.90
25140;DHT22;39015;48.106;-1.682;2023-02-27T09:36:45;11.50;56.90
25140;DHT22;39015;48.106;-1.682;2023-02-27T09:39:13;11.50;56.80
25140;DHT22;39015;48.106;-1.682;2023-02-27T09:41:54;11.50;56.90
25140;DHT22;39015;48.106;-1.682;2023-02-27T09:44:32;11.60;56.90
25140;DHT22;39015;48.106;-1.682;2023-02-27T09:47:02;11.60;56.80
25140;DHT22;39015;48.106;-1.682;2023-02-27T09:49:35;11.60;56.80
25140;DHT22;39015;48.106;-1.682;2023-02-27T09:52:08;11.60;56.80
25140;DHT22;39015;48.106;-1.682;2023-02-27T09:54:39;11.60;56.70
25140;DHT22;39015;48.106;-1.682;2023-02-27T09:57:15;11.60;56.60
25140;DHT22;39015;48.106;-1.682;2023-02-27T09:59:50;11.70;56.70
25140;DHT22;39015;48.106;-1.682;2023-02-27T10:02:38;11.70;56.70
25140;DHT22;39015;48.106;-1.682;2023-02-27T10:05:18;11.70;56.70
25140;DHT22;39015;48.106;-1.682;2023-02-27T10:07:55;11.70;56.70
25140;DHT22;39015;48.106;-1.682;2023-02-27T10:10:29;11.70;56.70
25140;DHT22;39015;48.106;-1.682;2023-02-27T10:13:10;11.70;56.60
25140;DHT22;39015;48.106;-1.682;2023-02-27T10:15:50;11.70;56.50
25140;DHT22;39015;48.106;-1.682;2023-02-27T10:18:21;11.70;56.60
25140;DHT22;39015;48.106;-1.682;2023-02-27T10:20:52;11.70;56.50
25140;DHT22;39015;48.106;-1.682;2023-02-27T10:23:31;11.80;56.50
25140;DHT22;39015;48.106;-1.682;2023-02-27T10:26:00;11.70;56.40
25140;DHT22;39015;48.106;-1.682;2023-02-27T10:28:31;11.80;56.50
25140;DHT22;39015;48.106;-1.682;2023-02-27T10:30:59;11.80;56.40
25140;DHT22;39015;48.106;-1.682;2023-02-27T10:33:30;11.80;56.40
25140;DHT22;39015;48.106;-1.682;2023-02-27T10:36:01;11.80;56.40
25140;DHT22;39015;48.106;-1.682;2023-02-27T10:38:32;11.80;56.40
25140;DHT22;39015;48.106;-1.682;2023-02-27T10:41:03;11.80;56.50
25140;DHT22;39015;48.106;-1.682;2023-02-27T10:43:36;11.90;56.40
25140;DHT22;39015;48.106;-1.682;2023-02-27T10:46:13;11.90;56.40
25140;DHT22;39015;48.106;-1.682;2023-02-27T10:48:41;11.90;56.40
25140;DHT22;39015;48.106;-1.682;2023-02-27T10:51:26;11.90;56.40
25140;DHT22;39015;48.106;-1.682;2023-02-27T10:54:14;12.00;56.40
25140;DHT22;39015;48.106;-1.682;2023-02-27T10:56:48;12.00;56.40
25140;DHT22;39015;48.106;-1.682;2023-02-27T10:59:22;12.00;56.50
25140;DHT22;39015;48.106;-1.682;2023-02-27T11:01:53;12.00;56.50
25140;DHT22;39015;48.106;-1.682;2023-02-27T11:04:27;12.00;56.40
25140;DHT22;39015;48.106;-1.682;2023-02-27T11:06:57;12.00;56.40
25140;DHT22;39015;48.106;-1.682;2023-02-27T11:09:26;12.00;56.40
25140;DHT22;39015;48.106;-1.682;2023-02-27T11:11:56;12.10;56.40
25140;DHT22;39015;48.106;-1.682;2023-02-27T11:14:48;12.10;56.40
25140;DHT22;39015;48.106;-1.682;2023-02-27T11:17:25;12.10;56.50
25140;DHT22;39015;48.106;-1.682;2023-02-27T11:19:53;12.10;56.50
25140;DHT22;39015;48.106;-1.682;2023-02-27T11:22:24;12.10;56.40
25140;DHT22;39015;48.106;-1.682;2023-02-27T11:27:44;12.10;56.40
25140;DHT22;39015;48.106;-1.682;2023-02-27T11:30:23;12.20;56.50
25140;DHT22;39015;48.106;-1.682;2023-02-27T11:32:52;12.20;56.60
25140;DHT22;39015;48.106;-1.682;2023-02-27T11:35:23;12.20;56.60
25140;DHT22;39015;48.106;-1.682;2023-02-27T11:37:53;12.20;56.50
25140;DHT22;39015;48.106;-1.682;2023-02-27T11:40:22;12.30;56.60
25140;DHT22;39015;48.106;-1.682;2023-02-27T11:42:55;12.30;56.60
25140;DHT22;39015;48.106;-1.682;2023-02-27T11:45:28;12.30;56.50
25140;DHT22;39015;48.106;-1.682;2023-02-27T11:47:59;12.30;56.60
25140;DHT22;39015;48.106;-1.682;2023-02-27T11:50:43;12.40;56.60
25140;DHT22;39015;48.106;-1.682;2023-02-27T11:53:37;12.40;56.70
25140;DHT22;39015;48.106;-1.682;2023-02-27T11:56:09;12.40;56.60
25140;DHT22;39015;48.106;-1.682;2023-02-27T11:58:43;12.50;56.60
25140;DHT22;39015;48.106;-1.682;2023-02-27T12:01:20;12.50;56.60
25140;DHT22;39015;48.106;-1.682;2023-02-27T12:03:54;12.50;56.50
25140;DHT22;39015;48.106;-1.682;2023-02-27T12:06:25;12.60;56.40
25140;DHT22;39015;48.106;-1.682;2023-02-27T12:08:56;12.60;56.40
25140;DHT22;39015;48.106;-1.682;2023-02-27T12:11:26;12.60;56.40
25140;DHT22;39015;48.106;-1.682;2023-02-27T12:13:58;12.60;56.40
25140;DHT22;39015;48.106;-1.682;2023-02-27T12:16:31;12.60;56.40
25140;DHT22;39015;48.106;-1.682;2023-02-27T12:19:04;12.60;56.30
25140;DHT22;39015;48.106;-1.682;2023-02-27T12:21:37;12.60;56.30
25140;DHT22;39015;48.106;-1.682;2023-02-27T12:24:13;12.70;56.30
25140;DHT22;39015;48.106;-1.682;2023-02-27T12:26:43;12.60;56.30
25140;DHT22;39015;48.106;-1.682;2023-02-27T12:29:18;12.70;56.30
25140;DHT22;39015;48.106;-1.682;2023-02-27T12:31:51;12.70;56.30
25140;DHT22;39015;48.106;-1.682;2023-02-27T12:34:23;12.70;56.30
25140;DHT22;39015;48.106;-1.682;2023-02-27T12:36:54;12.70;56.20
25140;DHT22;39015;48.106;-1.682;2023-02-27T12:39:22;12.70;56.20
25140;DHT22;39015;48.106;-1.682;2023-02-27T12:42:19;12.70;56.20
25140;DHT22;39015;48.106;-1.682;2023-02-27T12:45:02;12.70;56.30
25140;DHT22;39015;48.106;-1.682;2023-02-27T12:47:43;12.80;56.40
25140;DHT22;39015;48.106;-1.682;2023-02-27T12:50:14;12.80;56.40
25140;DHT22;39015;48.106;-1.682;2023-02-27T12:52:58;12.70;56.20
25140;DHT22;39015;48.106;-1.682;2023-02-27T12:55:29;12.80;56.30
25140;DHT22;39015;48.106;-1.682;2023-02-27T13:00:55;12.80;56.20
25140;DHT22;39015;48.106;-1.682;2023-02-27T13:03:31;12.80;56.10
25140;DHT22;39015;48.106;-1.682;2023-02-27T13:06:04;12.80;56.10
25140;DHT22;39015;48.106;-1.682;2023-02-27T13:08:43;12.80;56.10
25140;DHT22;39015;48.106;-1.682;2023-02-27T13:11:21;12.90;56.10
25140;DHT22;39015;48.106;-1.682;2023-02-27T13:13:52;12.90;56.10
25140;DHT22;39015;48.106;-1.682;2023-02-27T13:16:23;12.80;56.00
25140;DHT22;39015;48.106;-1.682;2023-02-27T13:18:55;12.90;56.10
25140;DHT22;39015;48.106;-1.682;2023-02-27T13:21:30;12.90;56.10
25140;DHT22;39015;48.106;-1.682;2023-02-27T13:24:17;12.90;56.20
25140;DHT22;39015;48.106;-1.682;2023-02-27T13:26:58;12.90;56.10
25140;DHT22;39015;48.106;-1.682;2023-02-27T13:29:39;12.90;56.20
25140;DHT22;39015;48.106;-1.682;2023-02-27T13:32:21;12.90;56.20
25140;DHT22;39015;48.106;-1.682;2023-02-27T13:34:58;12.90;56.20
25140;DHT22;39015;48.106;-1.682;2023-02-27T13:37:50;12.90;56.20
25140;DHT22;39015;48.106;-1.682;2023-02-27T13:40:33;12.90;56.20
25140;DHT22;39015;48.106;-1.682;2023-02-27T13:43:32;12.90;56.10
25140;DHT22;39015;48.106;-1.682;2023-02-27T13:45:56;12.90;56.10
25140;DHT22;39015;48.106;-1.682;2023-02-27T13:48:46;12.80;56.20
25140;DHT22;39015;48.106;-1.682;2023-02-27T13:51:41;12.80;56.20
25140;DHT22;39015;48.106;-1.682;2023-02-27T13:54:25;12.90;56.30
25140;DHT22;39015;48.106;-1.682;2023-02-27T13:57:18;12.80;56.20
25140;DHT22;39015;48.106;-1.682;2023-02-27T13:59:57;12.80;56.20
25140;DHT22;39015;48.106;-1.682;2023-02-27T14:02:35;12.80;56.20
25140;DHT22;39015;48.106;-1.682;2023-02-27T14:05:06;12.80;56.20
25140;DHT22;39015;48.106;-1.682;2023-02-27T14:07:56;12.80;56.90
25140;DHT22;39015;48.106;-1.682;2023-02-27T14:10:26;12.80;56.10
25140;DHT22;39015;48.106;-1.682;2023-02-27T14:12:54;12.80;56.00
25140;DHT22;39015;48.106;-1.682;2023-02-27T14:15:48;12.80;56.10
25140;DHT22;39015;48.106;-1.682;2023-02-27T14:18:54;12.80;56.10
25140;DHT22;39015;48.106;-1.682;2023-02-27T14:21:55;12.70;56.00
25140;DHT22;39015;48.106;-1.682;2023-02-27T14:24:34;12.70;56.00
25140;DHT22;39015;48.106;-1.682;2023-02-27T14:27:13;12.70;55.80
25140;DHT22;39015;48.106;-1.682;2023-02-27T14:29:45;12.70;55.80
25140;DHT22;39015;48.106;-1.682;2023-02-27T14:32:18;12.70;55.70
25140;DHT22;39015;48.106;-1.682;2023-02-27T14:34:46;12.70;55.80
25140;DHT22;39015;48.106;-1.682;2023-02-27T14:37:16;12.70;55.60
25140;DHT22;39015;48.106;-1.682;2023-02-27T14:39:47;12.70;55.70
25140;DHT22;39015;48.106;-1.682;2023-02-27T14:42:28;12.70;55.70
25140;DHT22;39015;48.106;-1.682;2023-02-27T14:44:57;12.70;55.60
25140;DHT22;39015;48.106;-1.682;2023-02-27T14:47:27;12.70;55.60
25140;DHT22;39015;48.106;-1.682;2023-02-27T14:49:56;12.70;55.30
25140;DHT22;39015;48.106;-1.682;2023-02-27T14:52:24;12.70;55.30
25140;DHT22;39015;48.106;-1.682;2023-02-27T14:55:06;12.70;55.30
25140;DHT22;39015;48.106;-1.682;2023-02-27T14:57:37;12.80;55.20
25140;DHT22;39015;48.106;-1.682;2023-02-27T15:00:27;12.80;55.30
25140;DHT22;39015;48.106;-1.682;2023-02-27T15:02:54;12.80;55.30
25140;DHT22;39015;48.106;-1.682;2023-02-27T15:05:25;12.80;55.10
25140;DHT22;39015;48.106;-1.682;2023-02-27T15:07:54;12.80;55.10
25140;DHT22;39015;48.106;-1.682;2023-02-27T15:10:31;12.80;55.20
25140;DHT22;39015;48.106;-1.682;2023-02-27T15:12:59;12.80;54.90
25140;DHT22;39015;48.106;-1.682;2023-02-27T15:15:26;12.80;54.90
25140;DHT22;39015;48.106;-1.682;2023-02-27T15:17:55;12.80;54.90
25140;DHT22;39015;48.106;-1.682;2023-02-27T15:20:26;12.80;54.70
25140;DHT22;39015;48.106;-1.682;2023-02-27T15:22:56;12.80;54.60
25140;DHT22;39015;48.106;-1.682;2023-02-27T15:25:31;12.80;54.50
25140;DHT22;39015;48.106;-1.682;2023-02-27T15:28:01;12.80;54.30
25140;DHT22;39015;48.106;-1.682;2023-02-27T15:30:29;12.80;54.10
25140;DHT22;39015;48.106;-1.682;2023-02-27T15:32:57;12.80;54.20
25140;DHT22;39015;48.106;-1.682;2023-02-27T15:35:31;12.80;54.10
25140;DHT22;39015;48.106;-1.682;2023-02-27T15:38:00;12.80;54.10
25140;DHT22;39015;48.106;-1.682;2023-02-27T15:40:32;12.80;54.10
25140;DHT22;39015;48.106;-1.682;2023-02-27T15:43:01;12.80;54.10
25140;DHT22;39015;48.106;-1.682;2023-02-27T15:45:30;12.80;54.10
25140;DHT22;39015;48.106;-1.682;2023-02-27T15:47:58;12.80;54.10
25140;DHT22;39015;48.106;-1.682;2023-02-27T15:50:27;12.80;54.10
25140;DHT22;39015;48.106;-1.682;2023-02-27T15:52:58;12.80;54.10
25140;DHT22;39015;48.106;-1.682;2023-02-27T15:55:32;12.80;53.90
25140;DHT22;39015;48.106;-1.682;2023-02-27T15:58:00;12.80;54.00
25140;DHT22;39015;48.106;-1.682;2023-02-27T16:00:28;12.80;53.90
25140;DHT22;39015;48.106;-1.682;2023-02-27T16:02:57;12.80;54.00
25140;DHT22;39015;48.106;-1.682;2023-02-27T16:05:28;12.80;54.00
25140;DHT22;39015;48.106;-1.682;2023-02-27T16:07:56;12.80;53.90
25140;DHT22;39015;48.106;-1.682;2023-02-27T16:10:27;12.80;53.90
25140;DHT22;39015;48.106;-1.682;2023-02-27T16:12:55;12.80;54.00
25140;DHT22;39015;48.106;-1.682;2023-02-27T16:15:28;12.80;54.00
25140;DHT22;39015;48.106;-1.682;2023-02-27T16:18:02;12.80;53.90
25140;DHT22;39015;48.106;-1.682;2023-02-27T16:20:40;12.80;53.80
25140;DHT22;39015;48.106;-1.682;2023-02-27T16:23:20;12.80;53.80
25140;DHT22;39015;48.106;-1.682;2023-02-27T16:26:22;12.80;53.70
25140;DHT22;39015;48.106;-1.682;2023-02-27T16:29:01;12.80;53.60
25140;DHT22;39015;48.106;-1.682;2023-02-27T16:31:31;12.80;53.70
25140;DHT22;39015;48.106;-1.682;2023-02-27T16:34:01;12.90;53.70
25140;DHT22;39015;48.106;-1.682;2023-02-27T16:36:40;12.90;53.80
25140;DHT22;39015;48.106;-1.682;2023-02-27T16:39:11;12.90;53.80
25140;DHT22;39015;48.106;-1.682;2023-02-27T16:41:38;12.80;53.80
25140;DHT22;39015;48.106;-1.682;2023-02-27T16:44:06;12.80;53.60
25140;DHT22;39015;48.106;-1.682;2023-02-27T16:46:33;12.90;53.70
25140;DHT22;39015;48.106;-1.682;2023-02-27T16:49:01;12.80;54.40
25140;DHT22;39015;48.106;-1.682;2023-02-27T16:51:30;12.80;53.70
25140;DHT22;39015;48.106;-1.682;2023-02-27T16:53:57;12.90;53.60
25140;DHT22;39015;48.106;-1.682;2023-02-27T16:56:26;12.90;53.60
25140;DHT22;39015;48.106;-1.682;2023-02-27T16:58:53;12.90;53.60
25140;DHT22;39015;48.106;-1.682;2023-02-27T17:01:22;12.90;53.60
25140;DHT22;39015;48.106;-1.682;2023-02-27T17:03:49;12.90;53.80
25140;DHT22;39015;48.106;-1.682;2023-02-27T17:06:17;12.90;53.80
25140;DHT22;39015;48.106;-1.682;2023-02-27T17:08:44;12.90;53.80
25140;DHT22;39015;48.106;-1.682;2023-02-27T17:11:11;12.90;53.70
25140;DHT22;39015;48.106;-1.682;2023-02-27T17:13:38;12.90;53.80
25140;DHT22;39015;48.106;-1.682;2023-02-27T17:16:06;12.90;53.80
25140;DHT22;39015;48.106;-1.682;2023-02-27T17:18:36;12.90;53.70
25140;DHT22;39015;48.106;-1.682;2023-02-27T17:21:03;13.00;53.70
25140;DHT22;39015;48.106;-1.682;2023-02-27T17:23:30;13.00;53.80
25140;DHT22;39015;48.106;-1.682;2023-02-27T17:26:03;13.00;53.70
25140;DHT22;39015;48.106;-1.682;2023-02-27T17:28:31;13.00;53.70
25140;DHT22;39015;48.106;-1.682;2023-02-27T17:30:59;13.00;53.70
25140;DHT22;39015;48.106;-1.682;2023-02-27T17:33:38;13.00;53.60
25140;DHT22;39015;48.106;-1.682;2023-02-27T17:36:11;13.00;53.70
25140;DHT22;39015;48.106;-1.682;2023-02-27T17:38:55;13.00;53.70
25140;DHT22;39015;48.106;-1.682;2023-02-27T17:41:30;13.00;53.80
25140;DHT22;39015;48.106;-1.682;2023-02-27T17:44:01;13.00;53.80
25140;DHT22;39015;48.106;-1.682;2023-02-27T17:46:29;13.00;53.90
25140;DHT22;39015;48.106;-1.682;2023-02-27T17:48:57;13.00;53.90
25140;DHT22;39015;48.106;-1.682;2023-02-27T17:51:26;13.00;53.90
25140;DHT22;39015;48.106;-1.682;2023-02-27T17:53:53;13.00;53.90
25140;DHT22;39015;48.106;-1.682;2023-02-27T17:56:22;13.00;54.70
25140;DHT22;39015;48.106;-1.682;2023-02-27T17:58:49;13.00;54.00
25140;DHT22;39015;48.106;-1.682;2023-02-27T18:01:18;13.00;53.90
25140;DHT22;39015;48.106;-1.682;2023-02-27T18:03:47;13.10;54.00
25140;DHT22;39015;48.106;-1.682;2023-02-27T18:06:16;13.00;54.00
25140;DHT22;39015;48.106;-1.682;2023-02-27T18:08:43;13.00;54.00
25140;DHT22;39015;48.106;-1.682;2023-02-27T18:11:11;13.00;54.00
25140;DHT22;39015;48.106;-1.682;2023-02-27T18:13:39;13.10;54.00
25140;DHT22;39015;48.106;-1.682;2023-02-27T18:16:07;13.10;54.00
25140;DHT22;39015;48.106;-1.682;2023-02-27T18:18:34;13.00;54.00
25140;DHT22;39015;48.106;-1.682;2023-02-27T18:21:04;13.10;54.10
25140;DHT22;39015;48.106;-1.682;2023-02-27T18:23:33;13.10;54.10
25140;DHT22;39015;48.106;-1.682;2023-02-27T18:26:00;13.10;54.10
25140;DHT22;39015;48.106;-1.682;2023-02-27T18:28:27;13.10;54.00
25140;DHT22;39015;48.106;-1.682;2023-02-27T18:30:58;13.10;54.10
25140;DHT22;39015;48.106;-1.682;2023-02-27T18:33:26;13.10;54.10
25140;DHT22;39015;48.106;-1.682;2023-02-27T18:35:53;13.10;54.10
25140;DHT22;39015;48.106;-1.682;2023-02-27T18:38:20;13.10;54.20
25140;DHT22;39015;48.106;-1.682;2023-02-27T18:40:49;13.10;54.10
25140;DHT22;39015;48.106;-1.682;2023-02-27T18:43:16;13.10;54.10
25140;DHT22;39015;48.106;-1.682;2023-02-27T18:45:43;13.10;54.20
25140;DHT22;39015;48.106;-1.682;2023-02-27T18:48:10;13.10;54.20
25140;DHT22;39015;48.106;-1.682;2023-02-27T18:50:41;13.00;54.20
25140;DHT22;39015;48.106;-1.682;2023-02-27T18:53:12;13.10;54.30
25140;DHT22;39015;48.106;-1.682;2023-02-27T18:55:45;13.00;54.30
25140;DHT22;39015;48.106;-1.682;2023-02-27T18:58:13;13.10;54.40
25140;DHT22;39015;48.106;-1.682;2023-02-27T19:00:41;13.10;54.30
25140;DHT22;39015;48.106;-1.682;2023-02-27T19:03:07;13.10;54.30
25140;DHT22;39015;48.106;-1.682;2023-02-27T19:05:39;13.10;54.40
25140;DHT22;39015;48.106;-1.682;2023-02-27T19:08:06;13.10;54.50
25140;DHT22;39015;48.106;-1.682;2023-02-27T19:10:37;13.00;54.40
25140;DHT22;39015;48.106;-1.682;2023-02-27T19:13:04;13.00;54.40
25140;DHT22;39015;48.106;-1.682;2023-02-27T19:15:32;13.00;54.50
25140;DHT22;39015;48.106;-1.682;2023-02-27T19:18:00;13.00;54.50
25140;DHT22;39015;48.106;-1.682;2023-02-27T19:20:27;13.00;54.50
25140;DHT22;39015;48.106;-1.682;2023-02-27T19:22:54;13.00;54.70
25140;DHT22;39015;48.106;-1.682;2023-02-27T19:25:21;13.00;54.70
25140;DHT22;39015;48.106;-1.682;2023-02-27T19:27:52;13.00;54.60
25140;DHT22;39015;48.106;-1.682;2023-02-27T19:30:19;13.00;54.60
25140;DHT22;39015;48.106;-1.682;2023-02-27T19:32:48;13.00;54.70
25140;DHT22;39015;48.106;-1.682;2023-02-27T19:35:15;13.00;54.70
25140;DHT22;39015;48.106;-1.682;2023-02-27T19:37:42;13.00;54.80
25140;DHT22;39015;48.106;-1.682;2023-02-27T19:40:13;13.00;54.80
25140;DHT22;39015;48.106;-1.682;2023-02-27T19:42:40;12.90;54.80
25140;DHT22;39015;48.106;-1.682;2023-02-27T19:45:09;12.90;54.80
25140;DHT22;39015;48.106;-1.682;2023-02-27T19:47:36;12.90;54.80
25140;DHT22;39015;48.106;-1.682;2023-02-27T19:50:06;12.90;54.90
25140;DHT22;39015;48.106;-1.682;2023-02-27T19:52:34;12.90;54.90
25140;DHT22;39015;48.106;-1.682;2023-02-27T19:55:01;12.90;54.90
25140;DHT22;39015;48.106;-1.682;2023-02-27T19:57:28;12.90;54.90
25140;DHT22;39015;48.106;-1.682;2023-02-27T19:59:55;12.90;55.00
25140;DHT22;39015;48.106;-1.682;2023-02-27T20:02:22;12.90;55.00
25140;DHT22;39015;48.106;-1.682;2023-02-27T20:04:49;12.90;55.10
25140;DHT22;39015;48.106;-1.682;2023-02-27T20:07:17;12.90;55.20
25140;DHT22;39015;48.106;-1.682;2023-02-27T20:09:44;12.80;55.20
25140;DHT22;39015;48.106;-1.682;2023-02-27T20:12:11;12.80;55.20
25140;DHT22;39015;48.106;-1.682;2023-02-27T20:14:38;12.80;55.10
25140;DHT22;39015;48.106;-1.682;2023-02-27T20:17:06;12.80;55.20
25140;DHT22;39015;48.106;-1.682;2023-02-27T20:19:33;12.80;55.30
25140;DHT22;39015;48.106;-1.682;2023-02-27T20:22:01;12.80;55.20
25140;DHT22;39015;48.106;-1.682;2023-02-27T20:24:29;12.80;55.30
25140;DHT22;39015;48.106;-1.682;2023-02-27T20:26:56;12.80;55.20
25140;DHT22;39015;48.106;-1.682;2023-02-27T20:29:26;12.80;55.30
25140;DHT22;39015;48.106;-1.682;2023-02-27T20:31:53;12.80;55.30
25140;DHT22;39015;48.106;-1.682;2023-02-27T20:34:24;12.80;55.30
25140;DHT22;39015;48.106;-1.682;2023-02-27T20:36:52;12.80;55.30
25140;DHT22;39015;48.106;-1.682;2023-02-27T20:39:20;12.80;55.40
25140;DHT22;39015;48.106;-1.682;2023-02-27T20:41:48;12.70;55.30
25140;DHT22;39015;48.106;-1.682;2023-02-27T20:44:16;12.80;55.50
25140;DHT22;39015;48.106;-1.682;2023-02-27T20:46:43;12.80;55.50
25140;DHT22;39015;48.106;-1.682;2023-02-27T20:49:12;12.80;55.40
25140;DHT22;39015;48.106;-1.682;2023-02-27T20:51:40;12.80;55.40
25140;DHT22;39015;48.106;-1.682;2023-02-27T20:54:11;12.80;55.40
25140;DHT22;39015;48.106;-1.682;2023-02-27T20:56:41;12.80;55.40
25140;DHT22;39015;48.106;-1.682;2023-02-27T20:59:13;12.80;55.40
25140;DHT22;39015;48.106;-1.682;2023-02-27T21:01:42;12.80;55.40
25140;DHT22;39015;48.106;-1.682;2023-02-27T21:04:17;12.80;55.40
25140;DHT22;39015;48.106;-1.682;2023-02-27T21:06:44;12.80;55.40
25140;DHT22;39015;48.106;-1.682;2023-02-27T21:09:15;12.80;55.40
25140;DHT22;39015;48.106;-1.682;2023-02-27T21:11:43;12.80;55.40
25140;DHT22;39015;48.106;-1.682;2023-02-27T21:14:12;12.80;55.40
25140;DHT22;39015;48.106;-1.682;2023-02-27T21:16:39;12.80;55.40
25140;DHT22;39015;48.106;-1.682;2023-02-27T21:19:07;12.80;55.40
25140;DHT22;39015;48.106;-1.682;2023-02-27T21:21:35;12.80;55.40
25140;DHT22;39015;48.106;-1.682;2023-02-27T21:24:04;12.80;55.40
25140;DHT22;39015;48.106;-1.682;2023-02-27T21:26:32;12.80;55.40
25140;DHT22;39015;48.106;-1.682;2023-02-27T21:29:02;12.80;55.40
25140;DHT22;39015;48.106;-1.682;2023-02-27T21:31:34;12.80;55.40
